Time;durP1;ratioP1;P1;durP2;ratioP2;P2;SDS_P1;SDS_P2;PMS_P1;PMS_P2;Temp;Humidity;BMP_temperature;BMP_pressure;BME280_temperature;BME280_humidity;BME280_pressure;Samples;Min_cycle;Max_cycle;Signal;HPM_P1;HPM_P2
2021/01/04 00:01:33;;;;;;;8.77;4.90;;;3.80;86.10;;;;;;5018598;28;20046;-60
2021/01/04 00:04:30;;;;;;;9.27;5.00;;;3.80;86.10;;;;;;5000127;28;20045;-60
2021/01/04 00:07:15;;;;;;;7.88;4.60;;;3.80;86.10;;;;;;5018974;28;20030;-60
2021/01/04 00:10:06;;;;;;;9.85;5.32;;;3.70;86.30;;;;;;5019254;28;20903;-62
2021/01/04 00:12:44;;;;;;;6.65;4.68;;;3.70;86.30;;;;;;5021884;28;20048;-60
2021/01/04 00:15:15;;;;;;;9.27;5.60;;;3.60;86.20;;;;;;5022619;28;20125;-61
2021/01/04 00:18:08;;;;;;;7.05;4.78;;;3.70;86.30;;;;;;5022640;28;20033;-60
2021/01/04 00:20:59;;;;;;;8.32;4.78;;;3.70;86.30;;;;;;5023035;28;20041;-60
2021/01/04 00:23:32;;;;;;;9.25;5.03;;;3.70;85.90;;;;;;5022567;28;20029;-60
2021/01/04 00:26:19;;;;;;;8.77;5.22;;;3.80;86.20;;;;;;5022600;28;20029;-60
2021/01/04 00:28:46;;;;;;;7.70;4.88;;;3.80;86.20;;;;;;5023290;28;20040;-60
2021/01/04 00:31:21;;;;;;;7.57;4.88;;;3.80;86.00;;;;;;5023870;28;20049;-60
2021/01/04 00:33:54;;;;;;;9.60;5.40;;;3.80;86.20;;;;;;5023025;28;20029;-60
2021/01/04 00:36:24;;;;;;;7.22;4.85;;;3.80;86.20;;;;;;5023781;28;20296;-60
2021/01/04 00:39:11;;;;;;;7.93;4.60;;;3.80;85.90;;;;;;5022982;28;20057;-60
2021/01/04 00:41:57;;;;;;;9.07;4.93;;;3.80;85.40;;;;;;5018647;28;20519;-61
2021/01/04 00:44:42;;;;;;;7.20;4.45;;;3.70;85.70;;;;;;5023131;28;20087;-60
2021/01/04 00:47:35;;;;;;;7.03;4.40;;;3.70;86.00;;;;;;5022754;28;20029;-60
2021/01/04 00:50:14;;;;;;;6.97;4.30;;;3.70;85.50;;;;;;5023306;28;20017;-60
2021/01/04 00:52:39;;;;;;;7.97;4.18;;;3.80;85.90;;;;;;5021433;28;20044;-60
2021/01/04 00:55:17;;;;;;;8.55;4.85;;;3.80;86.00;;;;;;5021887;28;20029;-60
2021/01/04 00:58:10;;;;;;;6.90;4.50;;;3.80;85.90;;;;;;5022723;28;20040;-60
2021/01/04 01:00:47;;;;;;;6.95;4.32;;;3.80;85.70;;;;;;5022004;28;20091;-60
2021/01/04 01:03:24;;;;;;;9.00;4.53;;;3.90;85.90;;;;;;5021455;28;20540;-60
2021/01/04 01:06:24;;;;;;;7.07;4.30;;;3.90;85.70;;;;;;5021478;28;20034;-60
2021/01/04 01:08:54;;;;;;;6.65;4.18;;;3.90;86.00;;;;;;5022104;28;20128;-60
2021/01/04 01:11:51;;;;;;;6.07;3.70;;;3.80;85.80;;;;;;5021728;28;20069;-60
2021/01/04 01:14:38;;;;;;;6.03;4.47;;;3.90;85.40;;;;;;5022781;28;20040;-60
2021/01/04 01:17:38;;;;;;;6.97;4.28;;;3.90;85.70;;;;;;5021701;28;20033;-60
2021/01/04 01:20:05;;;;;;;7.22;4.70;;;3.80;85.40;;;;;;5022084;28;20478;-60
2021/01/04 01:22:35;;;;;;;5.88;4.20;;;3.80;85.70;;;;;;5021738;28;20029;-60
2021/01/04 01:25:08;;;;;;;6.95;4.18;;;3.80;85.60;;;;;;5021078;28;20021;-60
2021/01/04 01:27:48;;;;;;;6.75;4.22;;;3.80;85.80;;;;;;5022071;28;20179;-60
2021/01/04 01:30:48;;;;;;;6.75;4.45;;;3.80;86.20;;;;;;5019184;28;20033;-60
2021/01/04 01:33:47;;;;;;;9.20;4.47;;;3.90;86.00;;;;;;5021435;28;20087;-60
2021/01/04 01:36:47;;;;;;;6.65;4.30;;;3.90;86.10;;;;;;5021541;28;20035;-60
2021/01/04 01:39:24;;;;;;;7.28;4.88;;;3.80;86.40;;;;;;5021032;28;20033;-60
2021/01/04 01:42:14;;;;;;;6.47;4.60;;;3.80;85.80;;;;;;5021811;28;20041;-60
2021/01/04 01:44:49;;;;;;;7.30;3.97;;;3.80;85.80;;;;;;5021252;28;20033;-60
2021/01/04 01:47:22;;;;;;;5.38;3.90;;;3.70;85.50;;;;;;5020822;28;20120;-60
2021/01/04 01:50:09;;;;;;;6.18;4.50;;;3.70;86.00;;;;;;5021226;28;20033;-60
2021/01/04 01:53:10;;;;;;;6.30;4.18;;;3.80;86.70;;;;;;5021896;28;20061;-60
2021/01/04 01:55:44;;;;;;;6.45;4.10;;;3.80;86.00;;;;;;4940088;29;20047;-60
2021/01/04 01:58:48;;;;;;;5.90;4.20;;;3.80;85.90;;;;;;5009048;28;20136;-60
2021/01/04 02:01:51;;;;;;;6.47;3.85;;;3.80;85.80;;;;;;4981488;28;20092;-60
2021/01/04 02:04:32;;;;;;;7.25;4.85;;;3.80;85.80;;;;;;5003201;28;20111;-60
2021/01/04 02:07:14;;;;;;;6.20;3.90;;;3.80;85.80;;;;;;5020716;28;20695;-60
2021/01/04 02:10:01;;;;;;;7.82;4.20;;;3.80;85.90;;;;;;5020760;28;20505;-60
2021/01/04 02:12:35;;;;;;;5.57;3.65;;;3.80;85.70;;;;;;5020864;28;20123;-60
2021/01/04 02:15:12;;;;;;;5.72;3.75;;;3.90;85.70;;;;;;5020436;28;20030;-60
2021/01/04 02:18:01;;;;;;;6.70;3.92;;;3.90;85.30;;;;;;5020517;28;20759;-60
2021/01/04 02:20:49;;;;;;;6.45;3.80;;;3.90;85.80;;;;;;4973810;28;20037;-60
2021/01/04 02:23:52;;;;;;;8.38;4.35;;;3.90;85.50;;;;;;5020423;28;20037;-60
2021/01/04 02:26:23;;;;;;;6.55;3.88;;;3.90;85.40;;;;;;5020466;28;20208;-60
2021/01/04 02:29:06;;;;;;;6.18;4.25;;;3.90;85.40;;;;;;5020084;28;20044;-60
2021/01/04 02:31:34;;;;;;;5.68;3.92;;;3.80;85.40;;;;;;5019917;28;20033;-60
2021/01/04 02:34:01;;;;;;;6.03;3.60;;;3.80;85.00;;;;;;5002235;28;20033;-60
2021/01/04 02:36:31;;;;;;;5.25;3.70;;;3.80;85.60;;;;;;5020185;28;20044;-60
2021/01/04 02:39:05;;;;;;;4.97;3.55;;;3.80;85.30;;;;;;5019655;28;20029;-60
2021/01/04 02:42:06;;;;;;;6.55;3.80;;;3.90;85.40;;;;;;5002431;28;20040;-60
2021/01/04 02:44:32;;;;;;;5.32;3.30;;;3.90;85.30;;;;;;5019877;28;20131;-60
2021/01/04 02:47:22;;;;;;;6.05;3.60;;;3.90;85.30;;;;;;5019455;28;20505;-60
2021/01/04 02:50:41;;;;;;;6.70;4.10;;;3.80;85.30;;;;;;5016770;28;20080;-60
2021/01/04 02:53:13;;;;;;;4.90;3.55;;;3.90;85.70;;;;;;4958243;28;20049;-60
2021/01/04 02:55:51;;;;;;;6.53;3.92;;;3.90;85.30;;;;;;5013917;28;20049;-60
2021/01/04 02:58:43;;;;;;;6.20;3.45;;;3.90;85.10;;;;;;5017705;28;20037;-60
2021/01/04 03:01:16;;;;;;;4.95;3.63;;;3.90;85.00;;;;;;5014716;28;20361;-60
2021/01/04 03:03:47;;;;;;;5.25;3.70;;;3.90;85.30;;;;;;5020279;28;20069;-60
2021/01/04 03:06:17;;;;;;;4.63;3.40;;;3.90;85.30;;;;;;5019503;28;20040;-60
2021/01/04 03:08:43;;;;;;;5.07;3.38;;;3.90;85.20;;;;;;5019080;28;20029;-60
2021/01/04 03:11:14;;;;;;;6.45;3.83;;;3.90;85.30;;;;;;5019308;28;20063;-60
2021/01/04 03:14:09;;;;;;;6.03;3.67;;;3.90;85.40;;;;;;5019657;28;20112;-60
2021/01/04 03:16:54;;;;;;;4.50;3.58;;;3.90;85.60;;;;;;5018523;28;20108;-60
2021/01/04 03:19:23;;;;;;;5.57;3.45;;;3.90;85.40;;;;;;5018907;28;20565;-60
2021/01/04 03:22:05;;;;;;;5.93;4.00;;;3.90;85.00;;;;;;5018995;28;20037;-60
2021/01/04 03:24:31;;;;;;;6.13;3.97;;;3.90;84.90;;;;;;5018958;28;20040;-60
2021/01/04 03:27:21;;;;;;;5.78;3.78;;;3.80;85.10;;;;;;5019129;28;20029;-60
2021/01/04 03:29:47;;;;;;;5.78;3.45;;;3.90;85.40;;;;;;5018548;28;20025;-60
2021/01/04 03:32:13;;;;;;;5.93;3.50;;;3.90;85.20;;;;;;5018510;28;20026;-60
2021/01/04 03:34:39;;;;;;;5.22;3.88;;;3.90;85.30;;;;;;5017873;28;20509;-60
2021/01/04 03:37:04;;;;;;;4.90;3.65;;;3.90;85.20;;;;;;5019003;28;20049;-60
2021/01/04 03:39:30;;;;;;;5.93;3.75;;;3.90;84.90;;;;;;5017521;28;20752;-60
2021/01/04 03:41:57;;;;;;;5.68;3.90;;;3.90;85.90;;;;;;5018571;28;20068;-60
2021/01/04 03:44:24;;;;;;;5.40;3.40;;;3.90;85.40;;;;;;5019031;28;20029;-60
2021/01/04 03:46:50;;;;;;;4.28;3.00;;;3.90;85.40;;;;;;5018002;28;20026;-60
2021/01/04 03:49:15;;;;;;;5.30;3.78;;;3.90;85.20;;;;;;5018666;28;20386;-60
2021/01/04 03:51:54;;;;;;;4.68;3.28;;;3.90;85.40;;;;;;5019414;28;20068;-60
2021/01/04 03:54:20;;;;;;;7.90;3.72;;;3.90;85.40;;;;;;5018776;28;20034;-60
2021/01/04 03:56:46;;;;;;;5.65;3.25;;;3.90;85.30;;;;;;5018778;28;20036;-60
2021/01/04 03:59:13;;;;;;;5.30;3.78;;;3.90;85.10;;;;;;5019085;28;20069;-61
2021/01/04 04:01:39;;;;;;;4.40;3.13;;;3.90;85.10;;;;;;5018306;28;20567;-60
2021/01/04 04:04:05;;;;;;;5.82;3.67;;;3.90;85.30;;;;;;5019082;28;20482;-60
2021/01/04 04:06:30;;;;;;;5.05;3.55;;;3.90;85.50;;;;;;5018169;28;20033;-60
2021/01/04 04:08:56;;;;;;;6.10;3.80;;;3.90;85.30;;;;;;5018203;28;20029;-60
2021/01/04 04:11:22;;;;;;;4.30;3.20;;;3.90;85.30;;;;;;5018077;28;20423;-60
2021/01/04 04:13:47;;;;;;;5.03;3.10;;;3.90;84.50;;;;;;5019193;28;20041;-60
2021/01/04 04:16:14;;;;;;;4.03;3.47;;;3.90;84.90;;;;;;5017903;28;20136;-61
2021/01/04 04:18:40;;;;;;;6.10;3.42;;;3.90;85.10;;;;;;5018213;28;20038;-60
2021/01/04 04:21:06;;;;;;;4.47;3.47;;;3.90;85.10;;;;;;5000824;28;20115;-60
2021/01/04 04:23:31;;;;;;;6.13;4.07;;;4.00;85.00;;;;;;5017761;28;20037;-60
2021/01/04 04:25:57;;;;;;;5.35;3.90;;;3.90;85.10;;;;;;5018261;28;20087;-60
2021/01/04 04:28:23;;;;;;;4.72;3.47;;;3.90;85.10;;;;;;5018595;28;20040;-60
2021/01/04 04:30:48;;;;;;;4.75;3.28;;;4.00;84.90;;;;;;5017531;28;20030;-60
2021/01/04 04:33:14;;;;;;;4.40;3.35;;;3.90;84.90;;;;;;5018227;28;20040;-60
2021/01/04 04:35:40;;;;;;;4.70;3.28;;;3.90;85.30;;;;;;5018346;28;20623;-60
2021/01/04 04:38:05;;;;;;;5.53;3.35;;;3.90;85.00;;;;;;5018161;28;20040;-60
2021/01/04 04:40:34;;;;;;;5.03;3.17;;;3.90;85.20;;;;;;5017756;28;20036;-60
2021/01/04 04:43:29;;;;;;;4.88;3.22;;;3.90;85.20;;;;;;5018448;28;20057;-60
2021/01/04 04:45:55;;;;;;;5.88;3.08;;;3.90;84.50;;;;;;5015849;28;20042;-60
2021/01/04 04:48:48;;;;;;;6.15;3.47;;;3.90;84.90;;;;;;5019420;28;20034;-61
2021/01/04 04:51:32;;;;;;;6.03;3.50;;;3.80;84.70;;;;;;5019078;28;20065;-60
2021/01/04 04:54:35;;;;;;;5.40;3.10;;;3.90;85.00;;;;;;5019521;28;20040;-62
2021/01/04 04:57:10;;;;;;;4.93;3.40;;;3.90;85.20;;;;;;5018576;28;20049;-61
2021/01/04 04:59:44;;;;;;;3.53;2.75;;;3.90;85.30;;;;;;5021963;28;20033;-65
2021/01/04 05:06:03;;;;;;;4.95;3.45;;;3.90;85.30;;;;;;5017262;28;20417;-64
2021/01/04 05:08:44;;;;;;;4.53;3.05;;;3.90;85.10;;;;;;5020755;28;20442;-64
2021/01/04 05:11:10;;;;;;;5.22;3.33;;;3.90;85.10;;;;;;5021384;28;20033;-64
2021/01/04 05:13:48;;;;;;;5.70;3.15;;;4.00;85.00;;;;;;5016786;28;20584;-64
2021/01/04 05:16:19;;;;;;;4.15;3.08;;;3.90;84.60;;;;;;5021776;28;20048;-64
2021/01/04 05:18:57;;;;;;;5.28;3.40;;;3.90;85.20;;;;;;5021598;28;20040;-65
2021/01/04 05:22:00;;;;;;;4.40;3.50;;;3.90;84.30;;;;;;5019495;28;20030;-65
2021/01/04 05:25:00;;;;;;;3.67;2.65;;;3.90;85.00;;;;;;5021794;28;20728;-64
2021/01/04 05:28:05;;;;;;;4.63;3.70;;;3.90;84.70;;;;;;5003954;28;20095;-65
2021/01/04 05:31:07;;;;;;;6.30;3.92;;;3.80;84.90;;;;;;5021380;28;20041;-64
2021/01/04 05:33:59;;;;;;;4.22;3.33;;;3.80;85.00;;;;;;5021617;28;20116;-64
2021/01/04 05:36:43;;;;;;;5.65;3.55;;;3.70;85.60;;;;;;5021139;28;20095;-64
2021/01/04 05:39:31;;;;;;;4.82;3.00;;;3.80;85.40;;;;;;5022240;28;20117;-64
2021/01/04 05:42:18;;;;;;;5.78;3.63;;;3.80;85.40;;;;;;5022681;28;20044;-64
2021/01/04 05:44:56;;;;;;;;;;;3.90;85.00;;;;;;5022699;28;20041;-64
2021/01/04 05:47:42;;;;;;;5.53;3.40;;;3.80;85.20;;;;;;5022183;28;19913;-64
2021/01/04 05:50:22;;;;;;;3.90;2.83;;;3.80;85.40;;;;;;5021664;28;20156;-64
2021/01/04 05:52:48;;;;;;;5.90;3.10;;;3.80;85.20;;;;;;5021703;28;20114;-64
2021/01/04 05:55:15;;;;;;;3.45;2.78;;;3.80;85.10;;;;;;5021224;28;20049;-64
2021/01/04 05:57:49;;;;;;;4.78;3.40;;;3.90;85.30;;;;;;5021812;28;20224;-64
2021/01/04 06:00:35;;;;;;;5.40;3.13;;;3.90;85.10;;;;;;5021015;28;20279;-65
2021/01/04 06:03:08;;;;;;;4.07;2.97;;;3.90;85.10;;;;;;5021654;28;20033;-63
2021/01/04 06:05:35;;;;;;;4.72;3.13;;;3.90;84.90;;;;;;5020672;28;20800;-66
2021/01/04 06:08:01;;;;;;;5.32;3.22;;;3.90;84.50;;;;;;5021269;28;20088;-65
2021/01/04 06:10:34;;;;;;;3.88;3.05;;;3.90;84.40;;;;;;5019825;28;20045;-65
2021/01/04 06:13:02;;;;;;;3.60;2.60;;;3.90;84.20;;;;;;5019986;28;20140;-64
2021/01/04 06:15:31;;;;;;;4.57;3.40;;;3.90;85.00;;;;;;5020798;28;20048;-64
2021/01/04 06:18:19;;;;;;;5.18;2.80;;;3.80;84.60;;;;;;5020641;28;20033;-65
2021/01/04 06:20:44;;;;;;;3.25;2.58;;;3.80;84.70;;;;;;5019185;28;20041;-65
2021/01/04 06:23:21;;;;;;;4.72;2.75;;;3.80;84.80;;;;;;5020159;28;20128;-65
2021/01/04 06:25:54;;;;;;;2.75;2.53;;;3.80;85.00;;;;;;5020545;28;20497;-66
2021/01/04 06:28:19;;;;;;;3.22;2.63;;;3.80;84.70;;;;;;5019326;28;20038;-64
2021/01/04 06:30:45;;;;;;;4.18;2.60;;;3.80;85.00;;;;;;5020459;28;20044;-64
2021/01/04 06:33:15;;;;;;;4.38;2.92;;;3.80;84.50;;;;;;5019964;28;20831;-64
2021/01/04 06:35:41;;;;;;;4.72;2.65;;;3.70;84.70;;;;;;5019944;28;20044;-65
2021/01/04 06:38:20;;;;;;;4.20;3.08;;;3.70;84.80;;;;;;5020442;28;20049;-65
2021/01/04 06:40:46;;;;;;;3.25;2.70;;;3.70;84.80;;;;;;5020417;28;20125;-64
2021/01/04 06:43:26;;;;;;;4.60;2.80;;;3.70;84.80;;;;;;5019487;28;20486;-65
2021/01/04 06:46:30;;;;;;;5.45;3.35;;;3.60;84.80;;;;;;5020236;28;20478;-63
2021/01/04 06:49:11;;;;;;;5.57;3.22;;;3.70;85.40;;;;;;5017507;28;20044;-64
2021/01/04 06:52:03;;;;;;;4.18;2.90;;;3.70;84.90;;;;;;4997080;28;20033;-64
2021/01/04 06:55:06;;;;;;;4.82;3.33;;;3.60;85.30;;;;;;5017380;28;20033;-65
2021/01/04 06:58:04;;;;;;;4.15;2.90;;;3.60;85.40;;;;;;5001825;28;20039;-67
2021/01/04 07:00:48;;;;;;;5.20;3.15;;;3.60;85.60;;;;;;5019739;28;20524;-64
2021/01/04 07:03:16;;;;;;;3.83;2.78;;;3.70;85.40;;;;;;5016267;28;20037;-64
2021/01/04 07:06:12;;;;;;;3.60;2.60;;;3.70;85.30;;;;;;5017247;28;20030;-65
2021/01/04 07:09:10;;;;;;;3.30;2.58;;;3.70;85.40;;;;;;5014821;28;20033;-63
2021/01/04 07:11:46;;;;;;;3.53;2.65;;;3.70;85.10;;;;;;5018487;28;20103;-64
2021/01/04 07:14:46;;;;;;;5.53;3.40;;;3.70;85.40;;;;;;5017885;28;20029;-64
2021/01/04 07:17:31;;;;;;;3.25;2.63;;;3.70;85.50;;;;;;5018600;28;20037;-64
2021/01/04 07:20:38;;;;;;;3.70;2.67;;;3.70;85.00;;;;;;5017387;28;20753;-64
2021/01/04 07:23:31;;;;;;;4.82;3.17;;;3.70;85.10;;;;;;4966400;28;20053;-64
2021/01/04 07:26:08;;;;;;;4.20;3.00;;;3.70;85.80;;;;;;5018785;28;20749;-64
2021/01/04 07:29:02;;;;;;;3.78;2.53;;;3.70;85.10;;;;;;5019150;28;20071;-65
2021/01/04 07:31:39;;;;;;;5.15;3.35;;;3.70;85.00;;;;;;5015971;28;20037;-62
2021/01/04 07:34:17;;;;;;;6.43;3.28;;;3.70;85.30;;;;;;5018216;28;20716;-62
2021/01/04 07:36:53;;;;;;;4.72;2.92;;;3.70;85.10;;;;;;5019154;28;20033;-62
2021/01/04 07:39:47;;;;;;;4.32;3.53;;;3.70;85.00;;;;;;5016532;28;20052;-62
2021/01/04 07:42:31;;;;;;;4.25;3.20;;;3.70;85.80;;;;;;5015179;28;20048;-62
2021/01/04 07:45:12;;;;;;;5.50;3.28;;;3.70;85.60;;;;;;5017801;28;20052;-61
2021/01/04 07:48:15;;;;;;;7.80;4.90;;;3.70;85.60;;;;;;5017877;28;20044;-61
2021/01/04 07:51:08;;;;;;;4.35;3.38;;;3.80;85.50;;;;;;5013542;28;20040;-61
2021/01/04 07:53:57;;;;;;;4.28;3.30;;;3.80;85.50;;;;;;5018158;28;20025;-61
2021/01/04 07:56:33;;;;;;;4.82;3.50;;;3.80;85.40;;;;;;5016615;28;20762;-61
2021/01/04 07:59:26;;;;;;;5.60;3.33;;;3.90;85.20;;;;;;5018533;28;20041;-61
2021/01/04 08:02:18;;;;;;;5.85;3.60;;;3.90;84.70;;;;;;5015899;28;20045;-60
2021/01/04 08:05:09;;;;;;;4.47;3.47;;;3.90;84.90;;;;;;5011716;28;20848;-61
2021/01/04 08:07:54;;;;;;;4.53;3.15;;;3.90;84.70;;;;;;5016148;28;20523;-61
2021/01/04 08:10:43;;;;;;;5.00;3.72;;;3.90;84.80;;;;;;5013108;28;20041;-61
2021/01/04 08:13:43;;;;;;;4.40;3.28;;;3.90;84.10;;;;;;5015440;28;20061;-62
2021/01/04 08:16:26;;;;;;;5.47;3.80;;;3.90;84.50;;;;;;5016967;28;20569;-62
2021/01/04 08:19:06;;;;;;;5.35;3.50;;;3.80;84.80;;;;;;5017800;28;20715;-61
2021/01/04 08:21:49;;;;;;;5.45;4.15;;;3.90;85.20;;;;;;5017965;28;20030;-61
2021/01/04 08:24:23;;;;;;;5.20;3.83;;;3.90;85.00;;;;;;5000548;28;20048;-62
2021/01/04 08:27:10;;;;;;;6.05;3.45;;;3.90;85.10;;;;;;5017425;28;20069;-61
2021/01/04 08:29:35;;;;;;;;;;;4.00;85.20;;;;;;5013474;28;20044;-62
2021/01/04 08:32:24;;;;;;;6.77;3.37;;;4.00;85.30;;;;;;5020668;28;19942;-61
2021/01/04 08:34:50;;;;;;;5.32;3.55;;;4.00;85.40;;;;;;5021186;28;20037;-61
2021/01/04 08:37:32;;;;;;;5.20;4.10;;;4.00;84.90;;;;;;5021308;28;20034;-61
2021/01/04 08:40:32;;;;;;;5.60;3.63;;;4.00;84.50;;;;;;5021862;28;20044;-61
2021/01/04 08:43:01;;;;;;;6.68;4.00;;;4.00;84.30;;;;;;5006067;28;20053;-61
2021/01/04 08:45:34;;;;;;;6.65;3.97;;;4.00;84.40;;;;;;5021768;28;20120;-61
2021/01/04 08:48:29;;;;;;;6.50;3.97;;;4.00;84.20;;;;;;5021451;28;20037;-61
2021/01/04 08:51:09;;;;;;;5.55;3.60;;;4.00;84.50;;;;;;5001540;28;20033;-61
2021/01/04 08:53:35;;;;;;;4.88;3.78;;;4.00;84.50;;;;;;5021854;28;20045;-61
2021/01/04 08:56:25;;;;;;;6.10;3.65;;;4.00;84.60;;;;;;5002871;28;20095;-61
2021/01/04 08:58:51;;;;;;;5.85;3.80;;;4.10;84.70;;;;;;5019617;28;20486;-62
2021/01/04 09:01:24;;;;;;;7.65;4.22;;;4.10;84.70;;;;;;5005290;28;20079;-62
2021/01/04 09:04:11;;;;;;;5.35;3.60;;;4.10;84.70;;;;;;5022327;28;20039;-62
2021/01/04 09:06:48;;;;;;;7.97;3.95;;;4.10;84.60;;;;;;5017302;28;20044;-62
2021/01/04 09:09:19;;;;;;;4.90;3.42;;;4.10;84.60;;;;;;5018536;28;20073;-62
2021/01/04 09:11:57;;;;;;;6.40;3.78;;;4.20;84.30;;;;;;5022390;28;20187;-62
2021/01/04 09:14:53;;;;;;;8.20;4.75;;;4.20;84.50;;;;;;5020133;28;20102;-62
2021/01/04 09:17:26;;;;;;;8.40;4.32;;;4.20;83.80;;;;;;5018671;28;20557;-62
2021/01/04 09:20:05;;;;;;;7.13;4.53;;;4.10;84.20;;;;;;5019312;28;20033;-62
2021/01/04 09:22:31;;;;;;;6.13;4.32;;;4.20;84.30;;;;;;5020847;28;20059;-62
2021/01/04 09:24:57;;;;;;;9.70;4.88;;;4.10;84.20;;;;;;5020685;28;20794;-61
2021/01/04 09:27:30;;;;;;;6.95;4.28;;;4.10;84.40;;;;;;5020696;28;20033;-61
2021/01/04 09:30:05;;;;;;;9.40;5.07;;;4.10;84.60;;;;;;5019906;28;20025;-61
2021/01/04 09:32:42;;;;;;;5.65;4.35;;;4.20;84.50;;;;;;5020546;28;20069;-61
2021/01/04 09:35:17;;;;;;;7.18;4.32;;;4.20;84.50;;;;;;5020501;28;20037;-62
2021/01/04 09:37:42;;;;;;;8.48;4.70;;;4.20;84.70;;;;;;5016791;28;20052;-61
2021/01/04 09:40:16;;;;;;;6.32;4.10;;;4.20;84.40;;;;;;5020882;28;20873;-61
2021/01/04 09:42:41;;;;;;;8.93;4.18;;;4.20;84.20;;;;;;5017498;28;20040;-62
2021/01/04 09:45:13;;;;;;;10.15;4.55;;;4.20;84.50;;;;;;5002441;28;20029;-61
2021/01/04 09:47:54;;;;;;;8.45;4.47;;;4.20;84.50;;;;;;5016636;28;20104;-61
2021/01/04 09:50:29;;;;;;;9.07;5.10;;;4.20;84.40;;;;;;5021777;28;20033;-61
2021/01/04 09:53:03;;;;;;;9.48;5.28;;;4.30;84.70;;;;;;5020034;28;20041;-61
2021/01/04 09:55:32;;;;;;;11.35;6.15;;;4.30;84.30;;;;;;5021000;28;20049;-61
2021/01/04 09:58:01;;;;;;;7.93;4.30;;;4.30;83.90;;;;;;5021384;28;20051;-61
2021/01/04 10:00:31;;;;;;;8.30;4.57;;;4.20;84.10;;;;;;5021373;28;20116;-62
2021/01/04 10:03:19;;;;;;;7.13;4.35;;;4.20;84.20;;;;;;5002453;28;20037;-62
2021/01/04 10:05:47;;;;;;;6.32;3.78;;;4.20;84.70;;;;;;4990218;28;20040;-61
2021/01/04 10:08:17;;;;;;;10.70;5.47;;;4.20;84.40;;;;;;5017536;28;20033;-61
2021/01/04 10:11:02;;;;;;;10.52;5.45;;;4.20;84.50;;;;;;5020585;28;20033;-61
2021/01/04 10:13:30;;;;;;;10.40;5.43;;;4.30;84.20;;;;;;5019692;28;20037;-61
2021/01/04 10:15:58;;;;;;;10.52;5.45;;;4.30;83.50;;;;;;5020369;28;20048;-61
2021/01/04 10:18:36;;;;;;;10.10;5.60;;;4.20;83.80;;;;;;5020775;28;20037;-62
2021/01/04 10:21:04;;;;;;;10.70;5.18;;;4.30;84.40;;;;;;5019243;28;20037;-62
2021/01/04 10:23:34;;;;;;;8.45;4.93;;;4.30;84.20;;;;;;5020740;28;20049;-65
2021/01/04 10:26:01;;;;;;;11.73;4.97;;;4.30;84.20;;;;;;5019931;28;20037;-62
2021/01/04 10:28:33;;;;;;;12.27;6.22;;;4.40;84.30;;;;;;5020117;28;20036;-61
2021/01/04 10:31:28;;;;;;;12.05;6.30;;;4.40;84.30;;;;;;5026108;28;20032;-61
2021/01/04 10:34:11;;;;;;;10.25;5.30;;;4.40;84.00;;;;;;5017053;28;20468;-61
2021/01/04 10:36:38;;;;;;;10.40;5.68;;;4.40;84.10;;;;;;5020019;28;20077;-62
2021/01/04 10:39:18;;;;;;;11.95;6.13;;;4.40;83.80;;;;;;5017581;28;20025;-61
2021/01/04 10:41:44;;;;;;;15.00;6.30;;;4.40;83.70;;;;;;5002191;28;20521;-62
2021/01/04 10:44:23;;;;;;;11.70;6.32;;;4.40;83.70;;;;;;5020184;28;20033;-62
2021/01/04 10:47:00;;;;;;;12.95;6.53;;;4.40;83.80;;;;;;5016101;28;20037;-62
2021/01/04 10:49:32;;;;;;;12.75;6.28;;;4.40;83.80;;;;;;5019415;28;20102;-62
2021/01/04 10:51:59;;;;;;;14.13;6.63;;;4.30;83.40;;;;;;5019590;28;20429;-62
2021/01/04 10:54:42;;;;;;;12.45;6.47;;;4.30;83.30;;;;;;5019171;28;20497;-61
2021/01/04 10:57:30;;;;;;;12.35;6.00;;;4.30;83.60;;;;;;5019517;28;20033;-62
2021/01/04 11:00:02;;;;;;;14.15;6.35;;;4.20;84.10;;;;;;5014133;28;20061;-61
2021/01/04 11:02:41;;;;;;;13.40;6.40;;;4.20;84.40;;;;;;5019487;28;20033;-61
2021/01/04 11:05:08;;;;;;;11.90;7.22;;;4.20;84.70;;;;;;5019201;28;20056;-62
2021/01/04 11:07:34;;;;;;;11.45;6.47;;;4.20;84.50;;;;;;5018865;28;20119;-61
2021/01/04 11:10:22;;;;;;;14.68;7.32;;;4.20;84.30;;;;;;5017601;28;20140;-61
2021/01/04 11:13:06;;;;;;;14.07;6.75;;;4.30;84.40;;;;;;5016216;28;20111;-62
2021/01/04 11:15:35;;;;;;;13.95;7.20;;;4.30;84.50;;;;;;5018305;28;20080;-61
2021/01/04 11:18:09;;;;;;;14.55;7.00;;;4.40;84.50;;;;;;5018506;28;20635;-61
2021/01/04 11:20:36;;;;;;;15.73;6.95;;;4.40;84.50;;;;;;5018506;28;20025;-61
2021/01/04 11:23:04;;;;;;;13.07;7.40;;;4.30;85.00;;;;;;5019114;28;20134;-61
2021/01/04 11:25:29;;;;;;;16.85;7.63;;;4.30;84.80;;;;;;5018294;28;20041;-61
2021/01/04 11:27:55;;;;;;;14.95;7.15;;;4.40;84.70;;;;;;5019273;28;20036;-62
2021/01/04 11:30:22;;;;;;;13.02;6.45;;;4.40;84.70;;;;;;5003665;28;20712;-61
2021/01/04 11:32:47;;;;;;;13.25;6.72;;;4.40;84.50;;;;;;5024455;28;20143;-61
2021/01/04 11:35:13;;;;;;;11.65;6.47;;;4.50;84.60;;;;;;5018112;28;20079;-64
2021/01/04 11:37:39;;;;;;;14.88;6.38;;;4.50;83.70;;;;;;5017847;28;20052;-61
2021/01/04 11:40:06;;;;;;;13.43;6.63;;;4.40;83.90;;;;;;5017100;28;20029;-60
2021/01/04 11:42:32;;;;;;;11.00;5.85;;;4.40;84.70;;;;;;5018872;28;20034;-62
2021/01/04 11:44:58;;;;;;;12.15;6.85;;;4.40;84.70;;;;;;5018503;28;20390;-61
2021/01/04 11:47:24;;;;;;;13.10;6.43;;;4.40;84.60;;;;;;5001059;28;20124;-63
2021/01/04 11:49:49;;;;;;;11.23;6.20;;;4.40;84.60;;;;;;5018234;28;20026;-63
2021/01/04 11:52:15;;;;;;;13.63;6.10;;;4.40;84.30;;;;;;5018843;28;20037;-65
2021/01/04 11:54:42;;;;;;;11.32;6.15;;;4.40;83.90;;;;;;5018797;28;20117;-62
2021/01/04 11:57:09;;;;;;;11.95;7.05;;;4.40;84.50;;;;;;5018258;28;20034;-63
2021/01/04 11:59:35;;;;;;;15.35;7.38;;;4.50;84.50;;;;;;5018530;28;20033;-62
2021/01/04 12:02:00;;;;;;;13.27;6.13;;;4.40;84.00;;;;;;5017107;28;20045;-62
2021/01/04 12:04:26;;;;;;;18.77;7.38;;;4.40;84.30;;;;;;4998679;28;21070;-61
2021/01/04 12:06:52;;;;;;;14.65;6.85;;;4.40;84.50;;;;;;5018203;28;20032;-61
2021/01/04 12:09:18;;;;;;;13.70;7.90;;;4.40;84.50;;;;;;5022481;28;20079;-63
2021/01/04 12:11:47;;;;;;;19.70;8.70;;;4.40;84.40;;;;;;5002416;28;20049;-62
2021/01/04 12:14:15;;;;;;;14.35;7.35;;;4.40;84.20;;;;;;5022273;28;20045;-61
2021/01/04 12:16:41;;;;;;;18.90;8.38;;;4.40;84.20;;;;;;5020859;28;20103;-64
2021/01/04 12:19:07;;;;;;;14.57;7.55;;;4.40;84.30;;;;;;5021891;28;20033;-64
2021/01/04 12:21:34;;;;;;;16.45;7.03;;;4.40;83.90;;;;;;5021617;28;20620;-62
2021/01/04 12:24:00;;;;;;;15.57;7.63;;;4.30;84.50;;;;;;5021741;28;20049;-66
2021/01/04 12:26:26;;;;;;;12.30;6.60;;;4.30;85.00;;;;;;5021873;28;20167;-62
2021/01/04 12:28:52;;;;;;;15.50;8.05;;;4.30;85.00;;;;;;5022197;28;20188;-65
2021/01/04 12:31:18;;;;;;;18.50;8.15;;;4.40;84.80;;;;;;5021628;28;20439;-62
2021/01/04 12:33:44;;;;;;;15.65;7.03;;;4.30;84.60;;;;;;5021611;28;20036;-62
2021/01/04 12:36:26;;;;;;;17.88;7.40;;;4.30;84.70;;;;;;5021600;28;20033;-62
2021/01/04 12:38:52;;;;;;;16.67;7.20;;;4.30;84.70;;;;;;5021281;28;20087;-62
2021/01/04 12:41:18;;;;;;;19.30;8.35;;;4.30;84.50;;;;;;5021707;28;20037;-62
2021/01/04 12:43:45;;;;;;;22.08;8.80;;;4.30;85.00;;;;;;5021784;28;20033;-63
2021/01/04 12:46:12;;;;;;;19.17;7.75;;;4.30;84.70;;;;;;5002655;28;20125;-62
2021/01/04 12:48:39;;;;;;;27.98;9.68;;;4.30;84.80;;;;;;5021629;28;20029;-61
2021/01/04 12:51:09;;;;;;;18.10;7.88;;;4.30;84.80;;;;;;5021535;28;20033;-61
2021/01/04 12:53:35;;;;;;;18.25;8.55;;;4.30;84.80;;;;;;5020762;28;20484;-63
2021/01/04 12:56:00;;;;;;;17.58;7.07;;;4.30;85.30;;;;;;5019759;28;20044;-62
2021/01/04 12:58:27;;;;;;;18.77;7.80;;;4.20;85.40;;;;;;5020966;28;20068;-62
2021/01/04 13:00:53;;;;;;;14.60;7.15;;;4.20;85.50;;;;;;5020924;28;20041;-62
2021/01/04 13:03:19;;;;;;;16.73;6.32;;;4.20;84.70;;;;;;5019554;28;20545;-62
2021/01/04 13:05:45;;;;;;;15.10;7.53;;;4.30;84.90;;;;;;5020605;28;20040;-62
2021/01/04 13:08:11;;;;;;;16.48;8.30;;;4.20;85.20;;;;;;5021364;28;20112;-62
2021/01/04 13:10:37;;;;;;;18.50;8.27;;;4.20;85.40;;;;;;5021621;28;20072;-61
2021/01/04 13:13:02;;;;;;;16.60;8.15;;;4.30;85.20;;;;;;5020969;28;20044;-62
2021/01/04 13:15:28;;;;;;;13.32;6.80;;;4.30;85.00;;;;;;5020694;28;20197;-62
2021/01/04 13:17:54;;;;;;;19.38;7.07;;;4.20;84.80;;;;;;5021104;28;20033;-61
2021/01/04 13:20:20;;;;;;;16.80;8.43;;;4.30;84.80;;;;;;5022151;28;20410;-62
2021/01/04 13:22:46;;;;;;;16.92;7.38;;;4.30;84.90;;;;;;5003691;28;20025;-62
2021/01/04 13:25:12;;;;;;;16.15;7.80;;;4.30;84.90;;;;;;5021135;28;20044;-62
2021/01/04 13:27:38;;;;;;;17.60;7.82;;;4.40;84.80;;;;;;5021613;28;20061;-62
2021/01/04 13:30:06;;;;;;;19.27;8.82;;;4.40;85.10;;;;;;5020887;28;20014;-62
2021/01/04 13:32:31;;;;;;;19.77;8.80;;;4.40;84.40;;;;;;5021353;28;20049;-61
2021/01/04 13:34:57;;;;;;;19.17;8.77;;;4.40;84.30;;;;;;5002787;28;20033;-62
2021/01/04 13:37:23;;;;;;;19.55;8.50;;;4.40;84.90;;;;;;5021652;28;20069;-62
2021/01/04 13:39:49;;;;;;;17.23;7.97;;;4.40;85.20;;;;;;5021539;28;20086;-62
2021/01/04 13:42:17;;;;;;;17.20;8.27;;;4.30;85.00;;;;;;5002791;28;20047;-62
2021/01/04 13:44:44;;;;;;;20.30;7.95;;;4.30;84.80;;;;;;5020313;28;20117;-62
2021/01/04 13:47:12;;;;;;;15.07;7.32;;;4.30;85.00;;;;;;5020019;28;20040;-62